sensor_id;sensor_type;location;lat;lon;timestamp;P1;P4;P2;P0;N10;N4;N25;N1;N05;TS
80780;SPS30;70341;56.408;10.874;2023-05-29T00:01:04;6.88;6.12;4.61;2.68;21.57;21.49;21.13;19.21;13.80;0.85
80780;SPS30;70341;56.408;10.874;2023-05-29T00:03:31;7.55;6.71;5.05;2.92;23.53;23.44;23.04;20.93;15.00;0.85
80780;SPS30;70341;56.408;10.874;2023-05-29T00:06:01;6.22;5.58;4.32;2.68;21.50;21.44;21.13;19.51;14.47;0.81
80780;SPS30;70341;56.408;10.874;2023-05-29T00:08:29;5.63;5.10;4.06;2.68;21.48;21.43;21.18;19.82;15.11;0.75
80780;SPS30;70341;56.408;10.874;2023-05-29T00:10:56;6.07;5.48;4.32;2.79;22.39;22.33;22.05;20.54;15.52;0.77
80780;SPS30;70341;56.408;10.874;2023-05-29T00:13:23;5.76;5.20;4.08;2.62;21.00;20.94;20.67;19.23;14.48;0.78
80780;SPS30;70341;56.408;10.874;2023-05-29T00:15:50;5.91;5.33;4.20;2.71;21.74;21.68;21.41;19.94;15.05;0.78
80780;SPS30;70341;56.408;10.874;2023-05-29T00:18:17;6.18;5.59;4.41;2.86;22.97;22.90;22.62;21.10;15.97;0.78
80780;SPS30;70341;56.408;10.874;2023-05-29T00:20:44;6.28;5.64;4.39;2.75;22.08;22.01;21.71;20.10;14.98;0.80
80780;SPS30;70341;56.408;10.874;2023-05-29T00:23:11;6.62;5.94;4.59;2.84;22.81;22.74;22.41;20.68;15.32;0.81
80780;SPS30;70341;56.408;10.874;2023-05-29T00:25:38;6.33;5.66;4.36;2.66;21.39;21.32;21.01;19.33;14.24;0.80
80780;SPS30;70341;56.408;10.874;2023-05-29T00:28:06;7.12;6.37;4.88;2.95;23.70;23.63;23.27;21.36;15.65;0.82
80780;SPS30;70341;56.408;10.874;2023-05-29T00:30:34;6.22;5.56;4.25;2.56;20.60;20.54;20.22;18.55;13.57;0.83
80780;SPS30;70341;56.408;10.874;2023-05-29T00:33:01;6.52;5.81;4.42;2.63;21.13;21.05;20.72;18.94;13.76;0.82
80780;SPS30;70341;56.408;10.874;2023-05-29T00:35:28;6.28;5.63;4.36;2.70;21.71;21.64;21.33;19.70;14.61;0.79
80780;SPS30;70341;56.408;10.874;2023-05-29T00:37:55;6.46;5.79;4.46;2.73;21.93;21.86;21.54;19.83;14.62;0.82
80780;SPS30;70341;56.408;10.874;2023-05-29T00:40:25;6.18;5.56;4.33;2.72;21.86;21.80;21.50;19.92;14.87;0.80
80780;SPS30;70341;56.408;10.874;2023-05-29T00:42:52;6.35;5.70;4.41;2.73;21.95;21.89;21.58;19.92;14.78;0.80
80780;SPS30;70341;56.408;10.874;2023-05-29T00:45:19;5.75;5.19;4.07;2.61;20.92;20.86;20.59;19.15;14.41;0.78
80780;SPS30;70341;56.408;10.874;2023-05-29T00:47:46;6.96;6.21;4.71;2.79;22.42;22.34;21.98;20.07;14.55;0.83
80780;SPS30;70341;56.408;10.874;2023-05-29T00:50:14;6.68;5.97;4.55;2.71;21.82;21.75;21.41;19.59;14.27;0.81
80780;SPS30;70341;56.408;10.874;2023-05-29T00:52:44;6.44;5.77;4.44;2.72;21.88;21.81;21.50;19.79;14.60;0.80
80780;SPS30;70341;56.408;10.874;2023-05-29T00:55:13;6.08;5.48;4.29;2.74;21.98;21.91;21.63;20.10;15.10;0.79
80780;SPS30;70341;56.408;10.874;2023-05-29T00:57:41;6.34;5.70;4.43;2.77;22.25;22.18;21.88;20.24;15.07;0.83
80780;SPS30;70341;56.408;10.874;2023-05-29T01:00:08;5.60;5.04;3.94;2.49;20.03;19.97;19.70;18.28;13.69;0.81
80780;SPS30;70341;56.408;10.874;2023-05-29T01:02:36;6.63;5.95;4.60;2.85;22.90;22.83;22.51;20.78;15.40;0.83
80780;SPS30;70341;56.408;10.874;2023-05-29T01:05:06;7.63;6.81;5.19;3.09;24.82;24.73;24.34;22.26;16.19;0.86
80780;SPS30;70341;56.408;10.874;2023-05-29T01:07:38;7.33;6.54;4.97;2.94;23.67;23.59;23.21;21.20;15.38;0.86
80780;SPS30;70341;56.408;10.874;2023-05-29T01:10:07;6.80;6.07;4.64;2.78;22.38;22.30;21.96;20.12;14.69;0.84
80780;SPS30;70341;56.408;10.874;2023-05-29T01:17:58;7.63;6.83;5.23;3.16;25.43;25.35;24.96;22.92;16.80;0.83
80780;SPS30;70341;56.408;10.874;2023-05-29T01:24:54;6.60;5.92;4.58;2.83;22.77;22.71;22.38;20.66;15.32;0.82
80780;SPS30;70341;56.408;10.874;2023-05-29T01:27:35;6.98;6.25;4.80;2.92;23.44;23.37;23.02;21.16;15.55;0.84
80780;SPS30;70341;56.408;10.874;2023-05-29T01:30:04;6.81;6.09;4.67;2.83;22.75;22.68;22.34;20.52;15.06;0.84
80780;SPS30;70341;56.408;10.874;2023-05-29T01:32:39;6.37;5.74;4.51;2.88;23.15;23.09;22.79;21.19;15.94;0.79
80780;SPS30;70341;56.408;10.874;2023-05-29T01:35:09;6.71;6.04;4.70;2.96;23.74;23.67;23.35;21.63;16.15;0.79
80780;SPS30;70341;56.408;10.874;2023-05-29T01:37:36;6.80;6.07;4.62;2.76;22.16;22.09;21.74;19.89;14.48;0.83
80780;SPS30;70341;56.408;10.874;2023-05-29T01:40:03;6.74;6.02;4.61;2.78;22.38;22.31;21.97;20.16;14.76;0.82
80780;SPS30;70341;56.408;10.874;2023-05-29T01:42:32;6.30;5.66;4.41;2.77;22.23;22.17;21.86;20.25;15.11;0.79
80780;SPS30;70341;56.408;10.874;2023-05-29T01:44:59;6.37;5.74;4.49;2.85;22.90;22.83;22.53;20.92;15.69;0.79
80780;SPS30;70341;56.408;10.874;2023-05-29T01:47:28;6.55;5.88;4.54;2.80;22.49;22.42;22.10;20.38;15.08;0.81
80780;SPS30;70341;56.408;10.874;2023-05-29T01:49:59;6.28;5.63;4.35;2.68;21.51;21.44;21.14;19.49;14.41;0.81
80780;SPS30;70341;56.408;10.874;2023-05-29T01:52:27;7.30;6.51;4.95;2.95;23.69;23.61;23.23;21.24;15.44;0.84
80780;SPS30;70341;56.408;10.874;2023-05-29T01:54:54;7.15;6.37;4.83;2.85;22.92;22.84;22.47;20.50;14.84;0.85
80780;SPS30;70341;56.408;10.874;2023-05-29T01:57:22;6.30;5.64;4.34;2.65;21.30;21.23;20.92;19.25;14.18;0.81
80780;SPS30;70341;56.408;10.874;2023-05-29T01:59:52;6.77;6.06;4.66;2.85;22.87;22.80;22.46;20.66;15.22;0.82
80780;SPS30;70341;56.408;10.874;2023-05-29T02:02:22;6.28;5.67;4.45;2.86;22.94;22.88;22.59;21.02;15.83;0.77
80780;SPS30;70341;56.408;10.874;2023-05-29T02:04:49;5.56;5.04;4.01;2.64;21.22;21.17;20.92;19.58;14.92;0.76
80780;SPS30;70341;56.408;10.874;2023-05-29T02:07:16;6.69;6.02;4.68;2.94;23.58;23.51;23.19;21.47;16.01;0.81
80780;SPS30;70341;56.408;10.874;2023-05-29T02:09:43;6.35;5.72;4.46;2.81;22.54;22.47;22.17;20.55;15.35;0.79
80780;SPS30;70341;56.408;10.874;2023-05-29T02:12:09;6.02;5.42;4.24;2.69;21.60;21.53;21.25;19.72;14.78;0.78
80780;SPS30;70341;56.408;10.874;2023-05-29T02:14:36;6.96;6.24;4.82;2.96;23.79;23.72;23.37;21.54;15.92;0.80
80780;SPS30;70341;56.408;10.874;2023-05-29T02:17:03;6.57;5.91;4.61;2.92;23.42;23.35;23.04;21.36;15.99;0.79
80780;SPS30;70341;56.408;10.874;2023-05-29T02:19:31;6.95;6.25;4.85;3.02;24.27;24.19;23.86;22.06;16.40;0.81
80780;SPS30;70341;56.408;10.874;2023-05-29T02:21:57;6.77;6.07;4.68;2.88;23.12;23.05;22.72;20.93;15.47;0.82
80780;SPS30;70341;56.408;10.874;2023-05-29T02:24:24;5.29;4.78;3.79;2.47;19.82;19.77;19.53;18.24;13.84;0.77
80780;SPS30;70341;56.408;10.874;2023-05-29T02:26:51;6.50;5.86;4.59;2.93;23.56;23.50;23.19;21.56;16.21;0.79
80780;SPS30;70341;56.408;10.874;2023-05-29T02:29:18;6.63;5.94;4.57;2.79;22.43;22.36;22.03;20.27;14.94;0.82
80780;SPS30;70341;56.408;10.874;2023-05-29T02:31:45;6.81;6.13;4.78;3.01;24.16;24.09;23.76;22.02;16.46;0.80
80780;SPS30;70341;56.408;10.874;2023-05-29T02:34:12;6.10;5.52;4.38;2.87;23.06;23.00;22.72;21.24;16.15;0.77
80780;SPS30;70341;56.408;10.874;2023-05-29T02:36:39;5.99;5.42;4.27;2.77;22.21;22.15;21.88;20.40;15.43;0.78
80780;SPS30;70341;56.408;10.874;2023-05-29T02:39:06;6.09;5.51;4.38;2.88;23.10;23.04;22.77;21.30;16.21;0.77
80780;SPS30;70341;56.408;10.874;2023-05-29T02:41:33;6.33;5.75;4.61;3.08;24.73;24.67;24.39;22.91;17.56;0.76
80780;SPS30;70341;56.408;10.874;2023-05-29T02:44:00;6.14;5.56;4.43;2.91;23.39;23.33;23.05;21.57;16.44;0.77
80780;SPS30;70341;56.408;10.874;2023-05-29T02:46:27;5.73;5.19;4.11;2.69;21.57;21.52;21.26;19.86;15.08;0.77
80780;SPS30;70341;56.408;10.874;2023-05-29T02:48:54;5.61;5.08;4.04;2.65;21.30;21.24;20.99;19.63;14.94;0.77
80780;SPS30;70341;56.408;10.874;2023-05-29T02:51:21;5.82;5.28;4.21;2.79;22.41;22.35;22.09;20.70;15.81;0.76
80780;SPS30;70341;56.408;10.874;2023-05-29T02:53:48;6.15;5.56;4.39;2.85;22.86;22.80;22.52;21.01;15.91;0.78
80780;SPS30;70341;56.408;10.874;2023-05-29T02:56:15;6.69;6.05;4.79;3.12;25.06;25.00;24.69;23.06;17.49;0.77
80780;SPS30;70341;56.408;10.874;2023-05-29T02:58:43;6.08;5.51;4.40;2.92;23.39;23.33;23.07;21.62;16.51;0.76
80780;SPS30;70341;56.408;10.874;2023-05-29T03:01:10;6.14;5.55;4.40;2.87;23.03;22.97;22.69;21.19;16.08;0.77
80780;SPS30;70341;56.408;10.874;2023-05-29T03:03:36;6.31;5.70;4.48;2.89;23.17;23.11;22.82;21.25;16.03;0.77
80780;SPS30;70341;56.408;10.874;2023-05-29T03:06:04;5.39;4.89;3.90;2.57;20.66;20.61;20.37;19.08;14.55;0.77
80780;SPS30;70341;56.408;10.874;2023-05-29T03:08:31;4.78;4.37;3.57;2.49;19.96;19.92;19.72;18.67;14.54;0.73
80780;SPS30;70341;56.408;10.874;2023-05-29T03:10:58;5.32;4.87;3.98;2.77;22.24;22.19;21.98;20.81;16.21;0.74
80780;SPS30;70341;56.408;10.874;2023-05-29T03:13:25;5.21;4.75;3.82;2.58;20.73;20.69;20.46;19.26;14.83;0.75
80780;SPS30;70341;56.408;10.874;2023-05-29T03:15:52;5.48;5.00;4.06;2.78;22.28;22.23;22.00;20.75;16.06;0.74
80780;SPS30;70341;56.408;10.874;2023-05-29T03:18:19;5.63;5.14;4.16;2.83;22.72;22.67;22.43;21.15;16.34;0.74
80780;SPS30;70341;56.408;10.874;2023-05-29T03:20:46;4.95;4.52;3.68;2.53;20.30;20.25;20.05;18.94;14.68;0.73
80780;SPS30;70341;56.408;10.874;2023-05-29T03:23:14;5.76;5.27;4.31;2.99;23.97;23.91;23.68;22.41;17.43;0.72
80780;SPS30;70341;56.408;10.874;2023-05-29T03:25:41;6.05;5.56;4.60;3.28;26.33;26.27;26.04;24.77;19.47;0.69
80780;SPS30;70341;56.408;10.874;2023-05-29T03:28:08;6.21;5.78;4.93;3.70;29.65;29.61;29.40;28.24;22.59;0.65
80780;SPS30;70341;56.408;10.874;2023-05-29T03:30:34;7.47;7.13;6.44;5.32;42.54;42.50;42.32;41.33;34.02;0.58
80780;SPS30;70341;56.408;10.874;2023-05-29T03:33:01;6.84;6.74;6.55;5.98;47.76;47.74;47.69;47.28;39.93;0.49
80780;SPS30;70341;56.408;10.874;2023-05-29T03:35:29;4.81;4.75;4.64;4.26;34.04;34.03;34.00;33.74;28.54;0.50
80780;SPS30;70341;56.408;10.874;2023-05-29T03:37:56;4.65;4.54;4.33;3.85;30.79;30.77;30.71;30.34;25.47;0.54
80780;SPS30;70341;56.408;10.874;2023-05-29T03:40:24;4.40;4.24;3.92;3.36;26.86;26.85;26.77;26.28;21.85;0.56
80780;SPS30;70341;56.408;10.874;2023-05-29T03:42:51;4.35;4.09;3.57;2.80;22.37;22.34;22.21;21.49;17.42;0.63
80780;SPS30;70341;56.408;10.874;2023-05-29T03:45:18;5.14;4.75;3.96;2.87;22.98;22.94;22.74;21.70;17.14;0.68
80780;SPS30;70341;56.408;10.874;2023-05-29T03:47:45;5.25;4.84;4.03;2.91;23.35;23.31;23.11;22.04;17.39;0.69
80780;SPS30;70341;56.408;10.874;2023-05-29T03:50:13;5.04;4.67;3.92;2.88;23.10;23.06;22.88;21.89;17.38;0.67
80780;SPS30;70341;56.408;10.874;2023-05-29T03:52:41;4.90;4.52;3.77;2.72;21.79;21.75;21.57;20.56;16.23;0.70
80780;SPS30;70341;56.408;10.874;2023-05-29T03:55:10;4.67;4.30;3.58;2.57;20.57;20.53;20.35;19.38;15.26;0.69
80780;SPS30;70341;56.408;10.874;2023-05-29T03:57:37;4.70;4.36;3.69;2.74;21.91;21.88;21.71;20.81;16.58;0.69
80780;SPS30;70341;56.408;10.874;2023-05-29T04:00:05;5.38;4.95;4.12;2.96;23.71;23.67;23.47;22.36;17.61;0.71
80780;SPS30;70341;56.408;10.874;2023-05-29T04:02:33;5.20;4.79;3.98;2.86;22.91;22.86;22.67;21.59;17.00;0.71
80780;SPS30;70341;56.408;10.874;2023-05-29T04:05:01;5.36;4.92;4.04;2.84;22.77;22.73;22.52;21.36;16.70;0.71
80780;SPS30;70341;56.408;10.874;2023-05-29T04:07:29;4.92;4.53;3.77;2.71;21.68;21.64;21.45;20.44;16.10;0.70
80780;SPS30;70341;56.408;10.874;2023-05-29T04:09:56;5.08;4.70;3.93;2.86;22.91;22.87;22.68;21.66;17.14;0.70
80780;SPS30;70341;56.408;10.874;2023-05-29T04:12:23;5.12;4.72;3.93;2.83;22.67;22.63;22.44;21.39;16.87;0.70
80780;SPS30;70341;56.408;10.874;2023-05-29T04:14:50;5.30;4.86;3.99;2.81;22.49;22.45;22.24;21.09;16.49;0.70
80780;SPS30;70341;56.408;10.874;2023-05-29T04:17:17;4.88;4.49;3.72;2.65;21.26;21.21;21.03;20.00;15.72;0.70
80780;SPS30;70341;56.408;10.874;2023-05-29T04:19:44;4.51;4.16;3.46;2.49;19.97;19.94;19.77;18.84;14.85;0.70
80780;SPS30;70341;56.408;10.874;2023-05-29T04:22:11;5.32;4.88;4.02;2.83;22.72;22.68;22.47;21.33;16.69;0.70
80780;SPS30;70341;56.408;10.874;2023-05-29T04:24:39;4.98;4.56;3.71;2.57;20.62;20.57;20.37;19.26;14.97;0.73
80780;SPS30;70341;56.408;10.874;2023-05-29T04:27:09;5.18;4.75;3.90;2.74;21.96;21.92;21.71;20.59;16.09;0.72
80780;SPS30;70341;56.408;10.874;2023-05-29T04:29:36;5.57;5.12;4.22;2.98;23.92;23.87;23.65;22.46;17.60;0.71
80780;SPS30;70341;56.408;10.874;2023-05-29T04:32:06;5.52;5.05;4.11;2.84;22.78;22.73;22.50;21.27;16.52;0.72
80780;SPS30;70341;56.408;10.874;2023-05-29T04:34:34;5.13;4.70;3.85;2.70;21.65;21.60;21.40;20.29;15.83;0.71
80780;SPS30;70341;56.408;10.874;2023-05-29T04:37:04;5.63;5.17;4.26;3.02;24.20;24.15;23.93;22.73;17.82;0.71
80780;SPS30;70341;56.408;10.874;2023-05-29T04:39:33;4.65;4.26;3.47;2.41;19.28;19.24;19.05;18.02;14.01;0.74
80780;SPS30;70341;56.408;10.874;2023-05-29T04:42:00;4.89;4.46;3.62;2.48;19.91;19.87;19.66;18.56;14.37;0.73
80780;SPS30;70341;56.408;10.874;2023-05-29T04:44:27;4.86;4.44;3.63;2.53;20.26;20.22;20.02;18.96;14.76;0.72
80780;SPS30;70341;56.408;10.874;2023-05-29T04:46:54;5.34;4.91;4.06;2.89;23.20;23.15;22.94;21.82;17.14;0.69
80780;SPS30;70341;56.408;10.874;2023-05-29T04:49:22;4.82;4.46;3.76;2.76;22.12;22.08;21.91;20.97;16.65;0.69
80780;SPS30;70341;56.408;10.874;2023-05-29T04:51:50;5.00;4.66;3.97;2.98;23.87;23.84;23.67;22.74;18.19;0.68
80780;SPS30;70341;56.408;10.874;2023-05-29T04:54:17;4.66;4.34;3.72;2.83;22.62;22.59;22.44;21.59;17.33;0.66
80780;SPS30;70341;56.408;10.874;2023-05-29T04:56:45;4.25;3.96;3.40;2.59;20.70;20.67;20.53;19.77;15.87;0.65
80780;SPS30;70341;56.408;10.874;2023-05-29T04:59:13;3.64;3.42;2.97;2.31;18.51;18.48;18.37;17.76;14.37;0.64
80780;SPS30;70341;56.408;10.874;2023-05-29T05:01:40;3.79;3.56;3.10;2.43;19.41;19.39;19.28;18.65;15.10;0.64
80780;SPS30;70341;56.408;10.874;2023-05-29T05:04:07;4.33;4.04;3.46;2.62;20.99;20.96;20.82;20.04;16.08;0.66
80780;SPS30;70341;56.408;10.874;2023-05-29T05:06:34;4.12;3.83;3.26;2.44;19.52;19.49;19.35;18.57;14.84;0.66
80780;SPS30;70341;56.408;10.874;2023-05-29T05:09:01;4.15;3.89;3.37;2.61;20.89;20.86;20.74;20.03;16.17;0.64
80780;SPS30;70341;56.408;10.874;2023-05-29T05:11:28;3.94;3.68;3.17;2.43;19.43;19.40;19.27;18.58;14.95;0.64
80780;SPS30;70341;56.408;10.874;2023-05-29T05:13:55;3.81;3.56;3.07;2.35;18.83;18.80;18.68;18.01;14.50;0.63
80780;SPS30;70341;56.408;10.874;2023-05-29T05:16:23;3.39;3.16;2.69;2.03;16.23;16.20;16.09;15.46;12.37;0.65
80780;SPS30;70341;56.408;10.874;2023-05-29T05:18:50;3.65;3.42;2.98;2.32;18.55;18.53;18.42;17.80;14.40;0.63
80780;SPS30;70341;56.408;10.874;2023-05-29T05:21:17;3.66;3.43;2.98;2.31;18.47;18.45;18.33;17.71;14.31;0.64
80780;SPS30;70341;56.408;10.874;2023-05-29T05:23:48;3.82;3.58;3.09;2.37;19.00;18.97;18.85;18.18;14.65;0.66
80780;SPS30;70341;56.408;10.874;2023-05-29T05:26:25;3.48;3.25;2.79;2.13;17.06;17.04;16.92;16.30;13.10;0.65
80780;SPS30;70341;56.408;10.874;2023-05-29T05:28:52;2.53;2.38;2.07;1.62;12.94;12.93;12.85;12.43;10.06;0.65
80780;SPS30;70341;56.408;10.874;2023-05-29T05:31:19;2.82;2.63;2.26;1.72;13.79;13.77;13.68;13.18;10.59;0.66
80780;SPS30;70341;56.408;10.874;2023-05-29T05:33:46;3.06;2.85;2.43;1.84;14.70;14.68;14.57;14.01;11.22;0.66
80780;SPS30;70341;56.408;10.874;2023-05-29T05:36:14;2.86;2.66;2.27;1.71;13.70;13.67;13.58;13.05;10.45;0.67
80780;SPS30;70341;56.408;10.874;2023-05-29T05:38:41;2.96;2.79;2.44;1.92;15.36;15.34;15.25;14.77;11.99;0.64
80780;SPS30;70341;56.408;10.874;2023-05-29T05:41:08;3.22;3.03;2.64;2.06;16.51;16.49;16.39;15.86;12.84;0.65
80780;SPS30;70341;56.408;10.874;2023-05-29T05:43:35;2.58;2.42;2.11;1.64;13.12;13.10;13.02;12.59;10.18;0.65
80780;SPS30;70341;56.408;10.874;2023-05-29T05:46:02;2.56;2.41;2.13;1.70;13.59;13.57;13.50;13.11;10.68;0.63
80780;SPS30;70341;56.408;10.874;2023-05-29T05:48:29;1.51;1.43;1.28;1.03;8.26;8.25;8.21;7.99;6.54;0.61
80780;SPS30;70341;56.408;10.874;2023-05-29T05:50:56;2.31;2.19;1.95;1.57;12.57;12.56;12.50;12.16;9.94;0.62
80780;SPS30;70341;56.408;10.874;2023-05-29T05:53:24;1.88;1.76;1.54;1.20;9.61;9.60;9.54;9.23;7.48;0.63
80780;SPS30;70341;56.408;10.874;2023-05-29T05:55:51;1.49;1.41;1.24;0.98;7.88;7.87;7.83;7.59;6.18;0.61
80780;SPS30;70341;56.408;10.874;2023-05-29T05:58:18;1.31;1.24;1.10;0.88;7.04;7.03;6.99;6.80;5.55;0.61
80780;SPS30;70341;56.408;10.874;2023-05-29T06:00:45;1.69;1.60;1.43;1.16;9.30;9.29;9.25;9.01;7.38;0.61
80780;SPS30;70341;56.408;10.874;2023-05-29T06:03:12;1.78;1.69;1.53;1.26;10.06;10.05;10.01;9.77;8.04;0.61
80780;SPS30;70341;56.408;10.874;2023-05-29T06:05:40;1.20;1.14;1.03;0.85;6.82;6.82;6.79;6.63;5.46;0.62
80780;SPS30;70341;56.408;10.874;2023-05-29T06:08:07;1.11;1.06;0.96;0.79;6.33;6.32;6.30;6.15;5.06;0.61
80780;SPS30;70341;56.408;10.874;2023-05-29T06:10:34;1.45;1.39;1.26;1.05;8.36;8.35;8.32;8.13;6.71;0.60
80780;SPS30;70341;56.408;10.874;2023-05-29T06:13:01;1.11;1.06;0.97;0.81;6.48;6.48;6.45;6.32;5.22;0.59
80780;SPS30;70341;56.408;10.874;2023-05-29T06:15:28;1.05;1.01;0.92;0.78;6.21;6.20;6.18;6.05;5.01;0.60
80780;SPS30;70341;56.408;10.874;2023-05-29T06:17:55;1.22;1.17;1.06;0.88;7.06;7.05;7.02;6.87;5.66;0.61
80780;SPS30;70341;56.408;10.874;2023-05-29T06:20:24;1.25;1.20;1.10;0.92;7.36;7.35;7.32;7.17;5.93;0.61
80780;SPS30;70341;56.408;10.874;2023-05-29T06:22:52;1.03;0.99;0.91;0.77;6.19;6.19;6.17;6.05;5.02;0.59
80780;SPS30;70341;56.408;10.874;2023-05-29T06:25:19;1.21;1.17;1.07;0.91;7.26;7.26;7.23;7.09;5.88;0.59
80780;SPS30;70341;56.408;10.874;2023-05-29T06:27:46;1.31;1.26;1.16;0.98;7.87;7.86;7.83;7.68;6.37;0.58
80780;SPS30;70341;56.408;10.874;2023-05-29T06:30:14;0.86;0.83;0.76;0.64;5.11;5.11;5.09;4.99;4.13;0.59
80780;SPS30;70341;56.408;10.874;2023-05-29T06:32:41;0.73;0.70;0.64;0.54;4.31;4.30;4.29;4.20;3.47;0.59
80780;SPS30;70341;56.408;10.874;2023-05-29T06:35:08;0.84;0.81;0.74;0.63;5.00;4.99;4.98;4.88;4.04;0.59
80780;SPS30;70341;56.408;10.874;2023-05-29T06:37:35;0.73;0.70;0.64;0.54;4.32;4.31;4.30;4.21;3.49;0.58
80780;SPS30;70341;56.408;10.874;2023-05-29T06:40:03;0.77;0.74;0.68;0.57;4.55;4.54;4.53;4.43;3.67;0.58
80780;SPS30;70341;56.408;10.874;2023-05-29T06:42:30;0.82;0.79;0.72;0.61;4.90;4.90;4.88;4.79;3.97;0.58
80780;SPS30;70341;56.408;10.874;2023-05-29T06:44:57;0.63;0.60;0.56;0.48;3.83;3.82;3.81;3.74;3.11;0.57
80780;SPS30;70341;56.408;10.874;2023-05-29T06:47:24;0.56;0.54;0.50;0.44;3.48;3.47;3.47;3.41;2.84;0.57
80780;SPS30;70341;56.408;10.874;2023-05-29T06:49:51;0.80;0.78;0.73;0.63;5.06;5.06;5.04;4.97;4.15;0.57
80780;SPS30;70341;56.408;10.874;2023-05-29T06:52:18;0.86;0.84;0.79;0.69;5.55;5.54;5.53;5.45;4.56;0.55
80780;SPS30;70341;56.408;10.874;2023-05-29T06:54:45;0.63;0.61;0.58;0.52;4.12;4.12;4.11;4.06;3.40;0.55
80780;SPS30;70341;56.408;10.874;2023-05-29T06:57:12;0.50;0.49;0.47;0.42;3.35;3.34;3.34;3.30;2.77;0.54
80780;SPS30;70341;56.408;10.874;2023-05-29T06:59:39;0.69;0.67;0.65;0.58;4.63;4.62;4.62;4.56;3.84;0.54
80780;SPS30;70341;56.408;10.874;2023-05-29T07:02:07;0.51;0.50;0.47;0.42;3.37;3.37;3.36;3.32;2.79;0.55
80780;SPS30;70341;56.408;10.874;2023-05-29T07:04:34;0.65;0.64;0.61;0.54;4.33;4.33;4.32;4.27;3.58;0.55
80780;SPS30;70341;56.408;10.874;2023-05-29T07:07:01;0.80;0.78;0.74;0.65;5.23;5.22;5.21;5.14;4.31;0.55
80780;SPS30;70341;56.408;10.874;2023-05-29T07:09:28;0.58;0.56;0.53;0.47;3.76;3.76;3.75;3.70;3.10;0.55
80780;SPS30;70341;56.408;10.874;2023-05-29T07:11:55;0.73;0.71;0.67;0.60;4.75;4.75;4.74;4.68;3.92;0.54
80780;SPS30;70341;56.408;10.874;2023-05-29T07:14:22;0.70;0.69;0.65;0.58;4.65;4.65;4.64;4.59;3.85;0.54
80780;SPS30;70341;56.408;10.874;2023-05-29T07:16:49;0.80;0.78;0.74;0.66;5.30;5.30;5.29;5.22;4.39;0.54
80780;SPS30;70341;56.408;10.874;2023-05-29T07:19:16;0.71;0.69;0.67;0.60;4.78;4.77;4.77;4.71;3.97;0.53
80780;SPS30;70341;56.408;10.874;2023-05-29T07:21:48;0.70;0.68;0.65;0.59;4.70;4.70;4.69;4.64;3.90;0.53
80780;SPS30;70341;56.408;10.874;2023-05-29T07:24:15;0.66;0.65;0.62;0.56;4.49;4.49;4.48;4.43;3.73;0.53
80780;SPS30;70341;56.408;10.874;2023-05-29T07:26:42;0.60;0.59;0.56;0.51;4.06;4.06;4.05;4.01;3.38;0.53
80780;SPS30;70341;56.408;10.874;2023-05-29T07:29:09;0.46;0.45;0.43;0.38;3.05;3.05;3.04;3.01;2.52;0.54
80780;SPS30;70341;56.408;10.874;2023-05-29T07:31:38;0.60;0.58;0.56;0.50;3.97;3.97;3.96;3.91;3.29;0.53
80780;SPS30;70341;56.408;10.874;2023-05-29T07:34:05;0.60;0.59;0.56;0.51;4.06;4.05;4.05;4.00;3.37;0.52
80780;SPS30;70341;56.408;10.874;2023-05-29T07:36:32;0.71;0.69;0.67;0.60;4.81;4.81;4.80;4.75;4.00;0.52
80780;SPS30;70341;56.408;10.874;2023-05-29T07:38:59;0.74;0.73;0.70;0.63;5.05;5.05;5.04;4.99;4.21;0.52
80780;SPS30;70341;56.408;10.874;2023-05-29T07:41:26;0.78;0.77;0.74;0.68;5.42;5.42;5.41;5.36;4.53;0.51
80780;SPS30;70341;56.408;10.874;2023-05-29T07:43:53;0.67;0.66;0.64;0.58;4.61;4.61;4.61;4.56;3.85;0.51
80780;SPS30;70341;56.408;10.874;2023-05-29T07:46:20;0.86;0.85;0.81;0.72;5.76;5.75;5.74;5.68;4.77;0.53
80780;SPS30;70341;56.408;10.874;2023-05-29T07:48:48;1.31;1.27;1.18;1.02;8.19;8.18;8.16;8.02;6.69;0.57
80780;SPS30;70341;56.408;10.874;2023-05-29T07:51:15;0.84;0.81;0.74;0.63;5.06;5.06;5.04;4.95;4.11;0.57
80780;SPS30;70341;56.408;10.874;2023-05-29T07:53:44;0.88;0.85;0.78;0.66;5.28;5.28;5.26;5.16;4.28;0.57
80780;SPS30;70341;56.408;10.874;2023-05-29T07:56:11;0.80;0.77;0.71;0.60;4.79;4.79;4.77;4.68;3.88;0.57
80780;SPS30;70341;56.408;10.874;2023-05-29T07:58:38;0.71;0.68;0.63;0.54;4.28;4.28;4.27;4.19;3.48;0.56
80780;SPS30;70341;56.408;10.874;2023-05-29T08:01:05;0.91;0.88;0.81;0.70;5.58;5.58;5.56;5.46;4.54;0.55
80780;SPS30;70341;56.408;10.874;2023-05-29T08:03:32;0.70;0.68;0.63;0.54;4.32;4.32;4.30;4.23;3.52;0.56
80780;SPS30;70341;56.408;10.874;2023-05-29T08:05:59;0.90;0.86;0.80;0.69;5.49;5.49;5.47;5.38;4.47;0.56
80780;SPS30;70341;56.408;10.874;2023-05-29T08:08:26;0.79;0.76;0.71;0.61;4.91;4.91;4.90;4.82;4.01;0.56
80780;SPS30;70341;56.408;10.874;2023-05-29T08:10:53;0.75;0.73;0.68;0.59;4.69;4.69;4.68;4.60;3.84;0.57
80780;SPS30;70341;56.408;10.874;2023-05-29T08:13:21;0.69;0.66;0.62;0.53;4.28;4.27;4.26;4.19;3.49;0.56
80780;SPS30;70341;56.408;10.874;2023-05-29T08:15:48;0.76;0.74;0.69;0.60;4.79;4.79;4.78;4.70;3.92;0.55
80780;SPS30;70341;56.408;10.874;2023-05-29T08:18:15;0.47;0.45;0.43;0.38;3.00;3.00;2.99;2.95;2.47;0.54
80780;SPS30;70341;56.408;10.874;2023-05-29T08:20:42;0.66;0.65;0.61;0.53;4.26;4.26;4.25;4.19;3.50;0.55
80780;SPS30;70341;56.408;10.874;2023-05-29T08:23:09;0.63;0.61;0.58;0.51;4.08;4.08;4.07;4.02;3.37;0.54
80780;SPS30;70341;56.408;10.874;2023-05-29T08:25:36;0.78;0.76;0.72;0.65;5.15;5.15;5.14;5.08;4.26;0.55
80780;SPS30;70341;56.408;10.874;2023-05-29T08:28:03;0.60;0.59;0.56;0.50;4.00;4.00;3.99;3.94;3.31;0.56
80780;SPS30;70341;56.408;10.874;2023-05-29T08:30:30;0.68;0.66;0.63;0.56;4.48;4.48;4.47;4.42;3.70;0.56
80780;SPS30;70341;56.408;10.874;2023-05-29T08:32:57;0.54;0.53;0.50;0.45;3.57;3.57;3.56;3.52;2.95;0.56
80780;SPS30;70341;56.408;10.874;2023-05-29T08:35:24;0.61;0.59;0.57;0.51;4.05;4.05;4.04;3.99;3.36;0.56
80780;SPS30;70341;56.408;10.874;2023-05-29T08:37:51;0.84;0.82;0.78;0.69;5.54;5.54;5.53;5.46;4.58;0.56
80780;SPS30;70341;56.408;10.874;2023-05-29T08:40:19;0.64;0.62;0.59;0.53;4.20;4.20;4.19;4.14;3.47;0.57
80780;SPS30;70341;56.408;10.874;2023-05-29T08:42:48;0.84;0.83;0.79;0.71;5.68;5.68;5.67;5.61;4.72;0.55
80780;SPS30;70341;56.408;10.874;2023-05-29T08:45:24;0.82;0.80;0.78;0.71;5.67;5.67;5.66;5.61;4.74;0.53
80780;SPS30;70341;56.408;10.874;2023-05-29T08:47:53;0.60;0.60;0.58;0.53;4.24;4.24;4.23;4.20;3.55;0.52
80780;SPS30;70341;56.408;10.874;2023-05-29T08:50:21;0.64;0.63;0.61;0.56;4.44;4.43;4.43;4.39;3.70;0.54
80780;SPS30;70341;56.408;10.874;2023-05-29T08:52:49;0.65;0.64;0.62;0.57;4.52;4.52;4.51;4.47;3.77;0.54
80780;SPS30;70341;56.408;10.874;2023-05-29T08:55:16;0.78;0.77;0.75;0.69;5.50;5.50;5.49;5.45;4.61;0.52
80780;SPS30;70341;56.408;10.874;2023-05-29T08:57:43;0.68;0.67;0.66;0.60;4.80;4.80;4.79;4.76;4.02;0.53
80780;SPS30;70341;56.408;10.874;2023-05-29T09:00:12;0.70;0.69;0.67;0.61;4.86;4.86;4.85;4.81;4.06;0.53
80780;SPS30;70341;56.408;10.874;2023-05-29T09:02:39;0.82;0.81;0.78;0.72;5.71;5.71;5.70;5.65;4.78;0.53
80780;SPS30;70341;56.408;10.874;2023-05-29T09:05:07;0.91;0.90;0.88;0.80;6.43;6.43;6.42;6.37;5.38;0.52
80780;SPS30;70341;56.408;10.874;2023-05-29T09:07:34;0.85;0.84;0.81;0.74;5.93;5.93;5.92;5.87;4.96;0.52
80780;SPS30;70341;56.408;10.874;2023-05-29T09:10:02;0.62;0.62;0.60;0.55;4.42;4.41;4.41;4.38;3.70;0.51
80780;SPS30;70341;56.408;10.874;2023-05-29T09:12:30;0.86;0.85;0.83;0.77;6.14;6.14;6.14;6.09;5.16;0.52
80780;SPS30;70341;56.408;10.874;2023-05-29T09:14:57;0.91;0.90;0.89;0.82;6.53;6.52;6.52;6.47;5.48;0.52
80780;SPS30;70341;56.408;10.874;2023-05-29T09:17:24;0.79;0.78;0.77;0.71;5.68;5.68;5.68;5.64;4.78;0.51
80780;SPS30;70341;56.408;10.874;2023-05-29T09:19:58;0.75;0.75;0.74;0.69;5.47;5.47;5.47;5.44;4.61;0.50
80780;SPS30;70341;56.408;10.874;2023-05-29T09:22:25;0.83;0.83;0.81;0.75;6.00;6.00;6.00;5.96;5.05;0.49
80780;SPS30;70341;56.408;10.874;2023-05-29T09:24:52;0.79;0.79;0.78;0.72;5.76;5.76;5.76;5.72;4.85;0.48
80780;SPS30;70341;56.408;10.874;2023-05-29T09:27:20;0.87;0.86;0.85;0.79;6.27;6.27;6.27;6.23;5.28;0.48